Time;durP1;ratioP1;P1;durP2;ratioP2;P2;SDS_P1;SDS_P2;PMS_P1;PMS_P2;Temp;Humidity;BMP_temperature;BMP_pressure;BME280_temperature;BME280_humidity;BME280_pressure;Samples;Min_cycle;Max_cycle;Signal;HPM_P1;HPM_P2
2021/12/21 00:01:52;;;;;;;33.28;12.85;;;;;;;;;;5105583;28;20020;-73
2021/12/21 00:04:17;;;;;;;27.63;11.25;;;;;;;;;;5124186;28;20045;-74
2021/12/21 00:06:43;;;;;;;28.08;11.23;;;;;;;;;;5124065;28;20137;-73
2021/12/21 00:09:09;;;;;;;29.90;10.82;;;;;;;;;;5095775;28;20032;-72
2021/12/21 00:11:35;;;;;;;27.05;11.15;;;;;;;;;;5075183;28;20367;-75
2021/12/21 00:14:31;;;;;;;29.42;11.90;;;;;;;;;;5077995;28;20072;-74
2021/12/21 00:17:06;;;;;;;;;;;;;;;;;;5088463;28;20066;-73
2021/12/21 00:23:17;;;;;;;31.70;12.10;;;;;;;;;;5095457;28;20430;-73
2021/12/21 00:25:03;;;;;;;29.45;10.80;;;;;;;;;;5091171;28;20028;-73
2021/12/21 00:27:29;;;;;;;26.63;11.20;;;;;;;;;;5081967;28;20055;-73
2021/12/21 00:29:54;;;;;;;27.92;10.43;;;;;;;;;;5082069;28;20090;-73
2021/12/21 00:32:19;;;;;;;27.75;11.68;;;;;;;;;;5099304;28;20059;-73
2021/12/21 00:34:45;;;;;;;30.27;12.38;;;;;;;;;;5102796;28;20422;-73
2021/12/21 00:37:10;;;;;;;26.83;10.68;;;;;;;;;;5102662;28;20028;-72
2021/12/21 00:39:36;;;;;;;25.70;10.82;;;;;;;;;;5102495;28;20093;-74
2021/12/21 00:42:05;;;;;;;29.02;10.65;;;;;;;;;;5084420;28;20214;-77
2021/12/21 00:44:31;;;;;;;24.65;10.27;;;;;;;;;;5082586;28;20074;-77
2021/12/21 00:46:56;;;;;;;23.27;9.75;;;;;;;;;;5102217;28;20020;-78
2021/12/21 00:49:23;;;;;;;24.33;9.88;;;;;;;;;;5102056;28;20054;-78
2021/12/21 00:51:49;;;;;;;32.35;10.73;;;;;;;;;;5106819;28;20038;-77
2021/12/21 00:54:16;;;;;;;26.67;10.80;;;;;;;;;;5116326;28;20051;-77
2021/12/21 00:56:41;;;;;;;25.73;10.52;;;;;;;;;;5122815;28;20065;-76
2021/12/21 00:59:07;;;;;;;25.65;10.57;;;;;;;;;;5116207;28;20016;-75
2021/12/21 01:01:35;;;;;;;26.83;10.50;;;;;;;;;;5099478;28;20024;-76
2021/12/21 01:04:02;;;;;;;26.65;10.55;;;;;;;;;;5102306;28;20020;-76
2021/12/21 01:11:49;;;;;;;22.70;9.85;;;;;;;;;;5082186;28;20456;-77
2021/12/21 01:15:10;;;;;;;22.02;9.55;;;;;;;;;;5081473;28;20028;-76
2021/12/21 01:19:40;;;;;;;22.92;10.02;;;;;;;;;;5081765;28;20241;-77
2021/12/21 01:22:17;;;;;;;27.15;10.85;;;;;;;;;;5081795;28;20317;-78
2021/12/21 01:30:45;;;;;;;24.65;10.32;;;;;;;;;;4980356;28;20057;-76
2021/12/21 01:35:40;;;;;;;22.33;9.40;;;;;;;;;;5101306;28;20043;-76
2021/12/21 01:41:38;;;;;;;23.02;8.85;;;;;;;;;;5039129;28;20021;-76
2021/12/21 01:44:24;;;;;;;;;;;;;;;;;;5039064;28;20123;-76
2021/12/21 01:49:39;;;;;;;23.48;9.45;;;;;;;;;;5113665;28;20401;-76
2021/12/21 01:52:07;;;;;;;21.15;8.95;;;;;;;;;;5101611;28;20085;-76
2021/12/21 01:54:32;;;;;;;21.50;8.93;;;;;;;;;;5101229;28;20381;-76
2021/12/21 01:56:58;;;;;;;24.67;9.75;;;;;;;;;;5101070;28;20047;-76
2021/12/21 01:59:23;;;;;;;21.35;9.43;;;;;;;;;;5101076;28;20312;-76
2021/12/21 02:01:49;;;;;;;23.05;8.75;;;;;;;;;;5101374;28;20073;-76
2021/12/21 02:04:17;;;;;;;26.98;9.15;;;;;;;;;;5101037;28;20042;-75
2021/12/21 02:06:44;;;;;;;23.60;8.90;;;;;;;;;;5101317;28;20020;-75
2021/12/21 02:09:10;;;;;;;18.83;8.65;;;;;;;;;;5101221;28;20281;-75
2021/12/21 02:11:36;;;;;;;20.58;8.73;;;;;;;;;;5101178;28;20012;-76
2021/12/21 02:14:05;;;;;;;25.50;9.45;;;;;;;;;;5100638;28;20057;-77
2021/12/21 02:16:39;;;;;;;22.40;9.38;;;;;;;;;;5101106;28;20024;-77
2021/12/21 02:19:19;;;;;;;24.67;9.60;;;;;;;;;;5101328;28;20326;-75
2021/12/21 02:21:49;;;;;;;25.90;10.18;;;;;;;;;;5100178;28;20020;-76
2021/12/21 02:24:20;;;;;;;23.77;9.70;;;;;;;;;;5092540;28;20062;-76
2021/12/21 02:27:06;;;;;;;26.92;10.27;;;;;;;;;;5103743;28;20066;-74
2021/12/21 02:29:34;;;;;;;;;;;;;;;;;;5119290;28;20085;-75
2021/12/21 02:31:59;;;;;;;24.85;9.65;;;;;;;;;;5112727;28;19982;-75
2021/12/21 02:34:25;;;;;;;22.63;9.02;;;;;;;;;;5109376;28;20035;-75
2021/12/21 02:36:54;;;;;;;26.45;9.43;;;;;;;;;;5113647;28;20027;-75
2021/12/21 02:39:21;;;;;;;25.15;9.65;;;;;;;;;;5100910;28;20076;-75
2021/12/21 02:41:47;;;;;;;25.83;9.68;;;;;;;;;;5106970;28;20058;-75
2021/12/21 02:44:14;;;;;;;25.70;10.77;;;;;;;;;;5105982;28;20335;-75
2021/12/21 02:46:39;;;;;;;25.92;9.65;;;;;;;;;;5113420;28;20031;-75
2021/12/21 02:49:10;;;;;;;26.60;10.52;;;;;;;;;;5103145;28;20032;-75
2021/12/21 02:51:40;;;;;;;26.60;10.38;;;;;;;;;;5111223;28;20029;-75
2021/12/21 02:54:06;;;;;;;24.83;10.25;;;;;;;;;;5082548;28;20077;-74
2021/12/21 02:56:31;;;;;;;27.08;9.85;;;;;;;;;;5100590;28;20051;-74
2021/12/21 02:58:57;;;;;;;26.10;10.43;;;;;;;;;;5116453;28;20027;-75
2021/12/21 03:01:22;;;;;;;23.00;9.68;;;;;;;;;;5115989;28;20062;-75
2021/12/21 03:03:48;;;;;;;32.50;10.75;;;;;;;;;;5118829;28;20036;-75
2021/12/21 03:06:42;;;;;;;26.10;9.40;;;;;;;;;;5100033;28;20331;-75
2021/12/21 03:08:59;;;;;;;;;;;;;;;;;;5103929;28;20277;-75
2021/12/21 03:14:24;;;;;;;24.60;10.18;;;;;;;;;;5085659;28;20325;-75
2021/12/21 03:16:50;;;;;;;32.05;10.52;;;;;;;;;;5106681;28;20400;-75
2021/12/21 03:19:15;;;;;;;19.88;8.90;;;;;;;;;;5123553;28;20035;-75
2021/12/21 03:21:41;;;;;;;21.95;9.68;;;;;;;;;;5115918;28;20028;-75
2021/12/21 03:24:08;;;;;;;22.88;10.07;;;;;;;;;;5104248;28;20299;-75
2021/12/21 03:26:33;;;;;;;27.98;9.80;;;;;;;;;;5104132;28;20044;-75
2021/12/21 03:29:03;;;;;;;28.92;10.13;;;;;;;;;;5108411;28;20089;-75
2021/12/21 03:31:29;;;;;;;22.33;9.93;;;;;;;;;;5124227;28;20027;-75
2021/12/21 03:33:54;;;;;;;26.58;9.88;;;;;;;;;;5106535;28;20144;-75
2021/12/21 03:36:20;;;;;;;24.33;9.40;;;;;;;;;;5116634;28;20039;-75
2021/12/21 03:39:16;;;;;;;25.80;9.15;;;;;;;;;;5114999;28;20024;-75
2021/12/21 03:41:40;;;;;;;23.45;9.18;;;;;;;;;;5117287;28;20358;-75
2021/12/21 03:44:08;;;;;;;23.58;9.27;;;;;;;;;;5115969;28;20031;-75
2021/12/21 03:46:34;;;;;;;25.10;9.90;;;;;;;;;;5088419;28;20035;-75
2021/12/21 03:49:08;;;;;;;24.30;10.10;;;;;;;;;;5122011;28;20130;-75
2021/12/21 03:51:34;;;;;;;20.63;9.38;;;;;;;;;;5112852;28;20118;-75
2021/12/21 03:53:59;;;;;;;19.05;8.18;;;;;;;;;;5098159;28;20260;-77
2021/12/21 03:56:40;;;;;;;23.75;9.35;;;;;;;;;;5087322;28;20035;-75
2021/12/21 03:59:05;;;;;;;25.63;9.10;;;;;;;;;;5096017;28;20342;-75
2021/12/21 04:01:31;;;;;;;22.30;9.50;;;;;;;;;;5109397;28;20588;-75
2021/12/21 04:03:56;;;;;;;19.25;8.60;;;;;;;;;;5123798;28;20020;-75
2021/12/21 04:06:22;;;;;;;23.83;9.40;;;;;;;;;;5123442;28;20091;-75
2021/12/21 04:08:47;;;;;;;18.35;8.13;;;;;;;;;;5118690;28;20472;-75
2021/12/21 04:11:13;;;;;;;21.35;8.48;;;;;;;;;;5111364;28;20027;-75
2021/12/21 04:13:38;;;;;;;22.52;8.52;;;;;;;;;;5103125;28;20020;-76
2021/12/21 04:16:05;;;;;;;20.67;8.40;;;;;;;;;;5111352;28;20078;-75
2021/12/21 04:18:36;;;;;;;21.48;9.45;;;;;;;;;;5104704;28;20334;-75
2021/12/21 04:21:02;;;;;;;18.67;8.00;;;;;;;;;;5111068;28;20308;-75
2021/12/21 04:23:28;;;;;;;21.92;9.02;;;;;;;;;;5123528;28;20020;-75
2021/12/21 04:25:53;;;;;;;23.52;8.50;;;;;;;;;;5118246;28;20204;-75
2021/12/21 04:28:18;;;;;;;19.52;8.57;;;;;;;;;;5105514;28;20016;-75
2021/12/21 04:30:44;;;;;;;19.42;7.97;;;;;;;;;;5119212;28;20137;-74
2021/12/21 04:33:09;;;;;;;20.23;8.60;;;;;;;;;;5104136;28;20028;-75
2021/12/21 04:35:35;;;;;;;23.27;8.45;;;;;;;;;;5122699;28;20039;-75
2021/12/21 04:38:13;;;;;;;21.42;8.32;;;;;;;;;;5123058;28;20024;-75
2021/12/21 04:40:46;;;;;;;20.05;7.97;;;;;;;;;;5118387;28;20020;-75
2021/12/21 04:43:12;;;;;;;20.15;8.82;;;;;;;;;;5084779;28;20320;-75
2021/12/21 04:45:37;;;;;;;21.30;8.90;;;;;;;;;;5118987;28;20043;-74
2021/12/21 04:48:03;;;;;;;18.63;7.70;;;;;;;;;;5122968;28;20030;-74
2021/12/21 04:50:28;;;;;;;23.30;8.30;;;;;;;;;;5121073;28;20039;-74
2021/12/21 04:52:54;;;;;;;25.58;7.75;;;;;;;;;;5105278;28;20024;-74
2021/12/21 04:55:19;;;;;;;24.08;8.35;;;;;;;;;;5084201;28;20059;-74
2021/12/21 04:57:45;;;;;;;21.63;8.00;;;;;;;;;;5102197;28;20046;-75
2021/12/21 05:00:12;;;;;;;18.27;7.93;;;;;;;;;;5102052;28;20058;-75
2021/12/21 05:02:39;;;;;;;20.85;7.40;;;;;;;;;;5117097;28;20069;-74
2021/12/21 05:05:05;;;;;;;16.98;7.70;;;;;;;;;;5122600;28;20028;-74
2021/12/21 05:07:33;;;;;;;17.98;7.70;;;;;;;;;;5102431;28;20059;-74
2021/12/21 05:10:04;;;;;;;21.15;7.85;;;;;;;;;;5104313;28;20054;-74
2021/12/21 05:12:29;;;;;;;19.42;8.02;;;;;;;;;;5110619;28;20035;-75
2021/12/21 05:14:56;;;;;;;19.75;6.97;;;;;;;;;;5089800;28;20098;-75
2021/12/21 05:17:21;;;;;;;27.88;7.88;;;;;;;;;;5115653;28;20026;-76
2021/12/21 05:19:47;;;;;;;23.98;7.88;;;;;;;;;;5107251;28;20055;-74
2021/12/21 05:22:12;;;;;;;22.27;8.00;;;;;;;;;;5114510;28;20283;-74
2021/12/21 05:24:38;;;;;;;17.58;7.28;;;;;;;;;;5104024;28;20445;-74
2021/12/21 05:27:04;;;;;;;17.20;7.43;;;;;;;;;;5117024;28;20027;-74
2021/12/21 05:29:31;;;;;;;15.82;6.68;;;;;;;;;;5116687;28;20046;-74
2021/12/21 05:31:59;;;;;;;15.25;7.05;;;;;;;;;;5121625;28;20328;-75
2021/12/21 05:34:24;;;;;;;16.95;7.35;;;;;;;;;;5120065;28;20022;-74
2021/12/21 05:36:50;;;;;;;17.52;7.18;;;;;;;;;;5120168;28;20032;-74
2021/12/21 05:39:19;;;;;;;16.55;7.00;;;;;;;;;;5111652;28;20039;-75
2021/12/21 05:44:18;;;;;;;18.15;7.13;;;;;;;;;;5113360;28;20024;-75
2021/12/21 05:46:43;;;;;;;18.70;6.82;;;;;;;;;;5113031;28;20026;-74
2021/12/21 05:49:08;;;;;;;16.75;7.25;;;;;;;;;;5102450;28;20051;-75
2021/12/21 05:51:34;;;;;;;19.90;7.45;;;;;;;;;;5104035;28;20258;-74
2021/12/21 05:53:59;;;;;;;17.05;8.15;;;;;;;;;;5082660;28;20024;-75
2021/12/21 05:56:25;;;;;;;17.55;7.50;;;;;;;;;;5102901;28;20106;-74
2021/12/21 05:58:50;;;;;;;14.88;7.03;;;;;;;;;;5112412;28;20023;-74
2021/12/21 06:01:16;;;;;;;17.13;7.20;;;;;;;;;;5117146;28;20045;-74
2021/12/21 06:03:41;;;;;;;16.42;7.60;;;;;;;;;;5117141;28;20042;-75
2021/12/21 06:06:13;;;;;;;23.85;7.53;;;;;;;;;;5089190;28;20028;-74
2021/12/21 06:08:40;;;;;;;19.90;7.07;;;;;;;;;;5113262;28;20066;-75
2021/12/21 06:11:07;;;;;;;16.77;7.47;;;;;;;;;;5108182;28;20024;-74
2021/12/21 06:27:16;;;;;;;29.15;7.60;;;;;;;;;;5067626;28;20080;-74
2021/12/21 06:29:41;;;;;;;19.10;6.07;;;;;;;;;;5114109;28;20048;-74
2021/12/21 06:32:08;;;;;;;34.70;7.63;;;;;;;;;;5085798;28;20054;-74
2021/12/21 06:34:34;;;;;;;19.58;7.30;;;;;;;;;;5111751;28;20042;-74
2021/12/21 06:37:00;;;;;;;20.52;7.50;;;;;;;;;;5103874;28;20035;-75
2021/12/21 06:39:28;;;;;;;23.40;7.03;;;;;;;;;;5120859;28;20319;-74
2021/12/21 06:41:53;;;;;;;15.73;6.78;;;;;;;;;;5105058;28;20074;-74
2021/12/21 06:44:19;;;;;;;20.73;6.72;;;;;;;;;;5106956;28;20102;-74
2021/12/21 06:46:49;;;;;;;12.82;6.15;;;;;;;;;;5122294;28;20355;-75
2021/12/21 06:52:00;;;;;;;17.17;6.47;;;;;;;;;;5125130;28;20038;-74
2021/12/21 06:54:26;;;;;;;22.38;7.13;;;;;;;;;;5108689;28;20020;-74
2021/12/21 06:56:51;;;;;;;20.35;6.32;;;;;;;;;;5095203;28;20028;-74
2021/12/21 06:59:17;;;;;;;24.75;7.03;;;;;;;;;;5120652;28;20054;-74
2021/12/21 07:01:42;;;;;;;22.75;6.78;;;;;;;;;;5109141;28;20327;-74
2021/12/21 07:04:10;;;;;;;18.17;6.60;;;;;;;;;;5124477;28;20043;-74
2021/12/21 07:06:38;;;;;;;15.93;6.65;;;;;;;;;;5089691;28;20028;-74
2021/12/21 07:09:11;;;;;;;16.38;6.40;;;;;;;;;;5104003;28;20032;-75
2021/12/21 07:11:43;;;;;;;18.70;7.03;;;;;;;;;;5091042;28;20364;-75
2021/12/21 07:19:44;;;;;;;20.88;7.32;;;;;;;;;;5109737;28;20115;-74
2021/12/21 07:22:10;;;;;;;18.30;7.57;;;;;;;;;;5116861;28;20076;-75
2021/12/21 07:24:36;;;;;;;21.02;6.93;;;;;;;;;;5113333;28;20028;-74
2021/12/21 07:27:01;;;;;;;18.35;7.15;;;;;;;;;;5116839;28;20032;-74
2021/12/21 07:32:34;;;;;;;19.63;7.18;;;;;;;;;;5104697;28;20077;-75
2021/12/21 07:35:00;;;;;;;16.75;5.63;;;;;;;;;;5123463;28;20356;-75
2021/12/21 07:37:25;;;;;;;19.85;6.43;;;;;;;;;;5111790;28;20030;-74
2021/12/21 07:39:51;;;;;;;18.55;5.85;;;;;;;;;;5123230;28;20097;-75
2021/12/21 07:42:18;;;;;;;12.95;5.78;;;;;;;;;;5115505;28;20023;-74
2021/12/21 07:44:44;;;;;;;16.23;5.57;;;;;;;;;;5084397;28;20036;-76
2021/12/21 07:47:09;;;;;;;18.70;6.45;;;;;;;;;;5121326;28;20325;-74
2021/12/21 07:49:35;;;;;;;17.00;5.95;;;;;;;;;;5099332;28;20028;-74
2021/12/21 07:52:01;;;;;;;22.38;6.25;;;;;;;;;;5106352;28;20046;-76
2021/12/21 07:54:26;;;;;;;18.13;6.00;;;;;;;;;;5102402;28;20019;-74
2021/12/21 07:56:51;;;;;;;19.10;6.50;;;;;;;;;;5115870;28;20356;-74
2021/12/21 07:59:17;;;;;;;22.00;6.15;;;;;;;;;;5103236;28;20087;-73
2021/12/21 08:01:42;;;;;;;17.88;6.18;;;;;;;;;;5111756;28;20027;-73
2021/12/21 08:04:09;;;;;;;19.30;6.30;;;;;;;;;;5105512;28;20055;-74
2021/12/21 08:06:36;;;;;;;18.73;6.18;;;;;;;;;;5116119;28;20023;-74
2021/12/21 08:09:03;;;;;;;24.98;6.95;;;;;;;;;;5106487;28;20024;-74
2021/12/21 08:14:01;;;;;;;17.10;6.22;;;;;;;;;;5120753;28;20027;-75
2021/12/21 08:16:27;;;;;;;22.98;5.63;;;;;;;;;;5121054;28;20028;-74
2021/12/21 08:18:52;;;;;;;21.15;5.80;;;;;;;;;;5095192;28;20032;-74
2021/12/21 08:21:19;;;;;;;22.13;7.55;;;;;;;;;;5117632;28;20236;-75
2021/12/21 08:23:45;;;;;;;20.73;6.40;;;;;;;;;;5094215;28;20259;-75
2021/12/21 08:26:11;;;;;;;20.73;6.50;;;;;;;;;;5087384;28;20020;-75
2021/12/21 08:28:36;;;;;;;21.48;6.20;;;;;;;;;;5103016;28;20093;-74
2021/12/21 08:31:02;;;;;;;16.58;6.10;;;;;;;;;;5088967;28;20024;-76
2021/12/21 08:33:28;;;;;;;16.92;6.32;;;;;;;;;;5104876;28;20051;-74
2021/12/21 08:35:53;;;;;;;20.02;6.55;;;;;;;;;;5117569;28;20032;-74
2021/12/21 08:38:20;;;;;;;24.77;6.15;;;;;;;;;;5110841;28;20031;-73
2021/12/21 08:40:49;;;;;;;17.42;5.95;;;;;;;;;;5118121;28;20385;-73
2021/12/21 08:43:20;;;;;;;16.48;5.97;;;;;;;;;;5098183;28;20031;-74
2021/12/21 08:45:49;;;;;;;21.90;6.45;;;;;;;;;;5112997;28;20142;-77
2021/12/21 08:48:15;;;;;;;19.30;6.22;;;;;;;;;;5108971;28;20039;-74
2021/12/21 08:50:41;;;;;;;23.25;7.43;;;;;;;;;;5104897;28;20034;-74
2021/12/21 08:53:06;;;;;;;21.10;6.90;;;;;;;;;;5122931;28;20023;-74
2021/12/21 08:55:32;;;;;;;21.65;6.20;;;;;;;;;;5119035;28;20059;-74
2021/12/21 08:57:57;;;;;;;18.58;6.72;;;;;;;;;;5114401;28;20102;-73
2021/12/21 09:00:23;;;;;;;21.33;5.60;;;;;;;;;;5087229;28;20452;-74
2021/12/21 09:02:50;;;;;;;27.95;6.70;;;;;;;;;;5089734;28;20024;-75
2021/12/21 09:05:18;;;;;;;22.98;5.80;;;;;;;;;;5092170;28;20182;-75
2021/12/21 09:07:45;;;;;;;25.20;6.03;;;;;;;;;;5115922;28;20016;-75
2021/12/21 09:10:13;;;;;;;22.63;6.30;;;;;;;;;;5120467;28;20027;-78
2021/12/21 09:12:39;;;;;;;18.13;6.85;;;;;;;;;;5096501;28;20015;-78
2021/12/21 09:15:07;;;;;;;22.38;6.30;;;;;;;;;;5105993;28;20028;-77
2021/12/21 09:17:32;;;;;;;16.17;5.72;;;;;;;;;;5112807;28;20304;-78
2021/12/21 09:19:58;;;;;;;18.55;6.18;;;;;;;;;;5115565;28;20032;-78
2021/12/21 09:22:24;;;;;;;17.05;5.55;;;;;;;;;;5092722;28;20033;-78
2021/12/21 09:24:50;;;;;;;14.48;5.28;;;;;;;;;;5122292;28;20355;-79
2021/12/21 09:27:16;;;;;;;16.75;5.40;;;;;;;;;;5105594;28;20023;-78
2021/12/21 09:29:42;;;;;;;13.68;5.85;;;;;;;;;;5108652;28;20047;-79
2021/12/21 09:32:12;;;;;;;13.32;5.70;;;;;;;;;;5081512;28;20090;-78
2021/12/21 09:34:38;;;;;;;16.48;5.82;;;;;;;;;;5083051;28;20044;-77
2021/12/21 09:37:04;;;;;;;13.63;5.13;;;;;;;;;;5101850;28;20304;-77
2021/12/21 09:39:30;;;;;;;16.88;5.78;;;;;;;;;;5114127;28;20100;-78
2021/12/21 09:41:56;;;;;;;14.02;5.80;;;;;;;;;;5103399;28;20039;-78
2021/12/21 09:44:21;;;;;;;16.85;6.15;;;;;;;;;;5103768;28;20031;-81
2021/12/21 09:46:46;;;;;;;18.50;6.55;;;;;;;;;;5121302;28;20031;-79
2021/12/21 09:49:12;;;;;;;17.77;5.60;;;;;;;;;;5121851;28;20039;-76
2021/12/21 09:51:37;;;;;;;17.10;5.65;;;;;;;;;;5118707;28;20024;-76
2021/12/21 09:54:03;;;;;;;16.95;6.90;;;;;;;;;;5101351;28;20062;-76
2021/12/21 09:56:30;;;;;;;18.23;6.15;;;;;;;;;;5101368;28;20020;-77
2021/12/21 09:58:55;;;;;;;14.27;5.57;;;;;;;;;;5082844;28;20077;-77
2021/12/21 10:01:21;;;;;;;19.75;6.88;;;;;;;;;;5101220;28;20020;-77
2021/12/21 10:03:47;;;;;;;19.75;6.28;;;;;;;;;;5101286;28;20232;-77
2021/12/21 10:06:13;;;;;;;12.73;5.57;;;;;;;;;;5083164;28;20036;-78
2021/12/21 10:08:39;;;;;;;21.95;6.90;;;;;;;;;;5100659;28;20126;-77
2021/12/21 10:11:16;;;;;;;15.35;5.78;;;;;;;;;;5100664;28;20050;-77
2021/12/21 10:13:42;;;;;;;16.30;6.72;;;;;;;;;;5081003;28;20282;-75
2021/12/21 10:16:07;;;;;;;16.55;6.30;;;;;;;;;;5098725;28;20024;-75
2021/12/21 10:18:35;;;;;;;19.40;6.53;;;;;;;;;;5099875;28;20016;-75
2021/12/21 10:21:04;;;;;;;22.70;7.35;;;;;;;;;;5081527;28;20381;-75
2021/12/21 10:23:33;;;;;;;14.98;6.07;;;;;;;;;;5097373;28;20020;-75
2021/12/21 10:26:04;;;;;;;17.48;6.70;;;;;;;;;;5096568;28;20133;-75
2021/12/21 10:28:44;;;;;;;21.50;6.35;;;;;;;;;;5098393;28;20252;-75
2021/12/21 10:31:21;;;;;;;16.85;6.43;;;;;;;;;;5098274;28;20097;-75
2021/12/21 10:33:47;;;;;;;19.75;6.43;;;;;;;;;;5099300;28;20024;-75
2021/12/21 10:36:14;;;;;;;19.80;6.75;;;;;;;;;;5099556;28;20078;-75
2021/12/21 10:38:49;;;;;;;23.75;7.10;;;;;;;;;;5098183;28;20052;-78
2021/12/21 10:41:38;;;;;;;16.63;6.55;;;;;;;;;;5093400;28;20020;-75
2021/12/21 10:44:05;;;;;;;19.05;7.03;;;;;;;;;;5078876;28;20380;-75
2021/12/21 10:46:37;;;;;;;19.23;6.93;;;;;;;;;;5065897;28;20059;-75
2021/12/21 10:49:15;;;;;;;21.10;6.55;;;;;;;;;;5097118;28;20040;-76
2021/12/21 10:52:01;;;;;;;19.35;6.75;;;;;;;;;;5079343;28;20371;-76
2021/12/21 10:54:32;;;;;;;20.80;7.00;;;;;;;;;;5103556;28;20024;-75
2021/12/21 10:56:59;;;;;;;21.27;7.30;;;;;;;;;;5076272;28;20036;-76
2021/12/21 10:59:32;;;;;;;16.25;6.82;;;;;;;;;;5094406;28;20024;-75
2021/12/21 11:02:11;;;;;;;19.25;6.70;;;;;;;;;;5098261;28;20036;-75
2021/12/21 11:04:38;;;;;;;18.05;7.32;;;;;;;;;;5080043;28;20220;-75
2021/12/21 11:07:33;;;;;;;17.50;7.30;;;;;;;;;;5097375;28;20012;-75
2021/12/21 11:10:19;;;;;;;20.75;7.60;;;;;;;;;;5083994;28;20069;-74
2021/12/21 11:12:51;;;;;;;19.35;6.88;;;;;;;;;;5098687;28;20309;-75
2021/12/21 11:15:29;;;;;;;17.00;6.50;;;;;;;;;;5096090;28;20091;-75
2021/12/21 11:18:09;;;;;;;19.73;7.55;;;;;;;;;;5092436;28;20020;-75
2021/12/21 11:20:37;;;;;;;21.75;7.43;;;;;;;;;;5099184;28;20077;-74
2021/12/21 11:23:05;;;;;;;18.27;7.53;;;;;;;;;;5099323;28;20059;-75
2021/12/21 11:25:34;;;;;;;20.90;7.50;;;;;;;;;;5098230;28;20038;-75
2021/12/21 11:28:03;;;;;;;19.10;7.25;;;;;;;;;;5099343;28;20016;-74
2021/12/21 11:30:29;;;;;;;20.98;7.35;;;;;;;;;;5102628;28;20036;-73
2021/12/21 11:32:57;;;;;;;17.67;5.97;;;;;;;;;;5103115;28;20020;-74
2021/12/21 11:38:02;;;;;;;20.85;7.65;;;;;;;;;;5102999;28;20024;-73
2021/12/21 11:40:34;;;;;;;18.08;7.47;;;;;;;;;;5101448;28;20020;-73
2021/12/21 11:43:11;;;;;;;21.58;8.73;;;;;;;;;;5102604;28;20018;-75
2021/12/21 11:46:14;;;;;;;20.60;7.43;;;;;;;;;;5102833;28;20300;-75
2021/12/21 11:48:59;;;;;;;16.65;7.47;;;;;;;;;;5061010;28;20076;-75
2021/12/21 11:51:27;;;;;;;23.77;7.72;;;;;;;;;;5084414;28;20020;-75
2021/12/21 11:53:53;;;;;;;19.90;7.50;;;;;;;;;;5083329;28;20511;-75
2021/12/21 11:56:27;;;;;;;18.67;7.72;;;;;;;;;;5089258;28;20036;-78
2021/12/21 11:58:54;;;;;;;20.92;8.32;;;;;;;;;;5092796;28;20035;-76
2021/12/21 12:01:26;;;;;;;20.05;7.30;;;;;;;;;;5076122;28;20028;-76
2021/12/21 12:04:11;;;;;;;23.02;8.00;;;;;;;;;;5067708;28;20355;-76
2021/12/21 12:06:52;;;;;;;17.42;7.63;;;;;;;;;;5067725;28;20032;-76
2021/12/21 12:09:32;;;;;;;19.98;8.23;;;;;;;;;;5067604;28;20039;-75
2021/12/21 12:12:09;;;;;;;19.98;8.18;;;;;;;;;;5074888;28;20340;-76
2021/12/21 12:14:37;;;;;;;20.67;8.15;;;;;;;;;;5078836;28;20066;-76
2021/12/21 12:17:09;;;;;;;21.27;7.95;;;;;;;;;;5095293;28;20035;-77
2021/12/21 12:19:38;;;;;;;19.33;7.35;;;;;;;;;;5093802;28;20047;-77
2021/12/21 12:22:09;;;;;;;19.98;7.88;;;;;;;;;;5088993;28;20100;-78
2021/12/21 12:24:39;;;;;;;22.00;8.77;;;;;;;;;;5086234;28;20024;-77
2021/12/21 12:27:22;;;;;;;19.35;7.80;;;;;;;;;;5098050;28;20051;-74
2021/12/21 12:29:51;;;;;;;21.35;8.00;;;;;;;;;;5095484;28;20048;-76
2021/12/21 12:32:30;;;;;;;20.75;8.52;;;;;;;;;;5083729;28;20087;-77
2021/12/21 12:35:10;;;;;;;22.73;8.20;;;;;;;;;;5077921;28;20032;-76
2021/12/21 12:37:54;;;;;;;22.10;8.13;;;;;;;;;;5091739;28;20048;-78
2021/12/21 12:40:24;;;;;;;22.70;8.85;;;;;;;;;;5079621;28;20039;-78
2021/12/21 12:42:57;;;;;;;20.77;8.68;;;;;;;;;;5057309;28;20032;-78
2021/12/21 12:45:25;;;;;;;21.23;8.95;;;;;;;;;;5071012;28;20508;-75
2021/12/21 12:47:54;;;;;;;22.05;8.85;;;;;;;;;;5096559;28;20027;-76
2021/12/21 12:50:22;;;;;;;23.50;9.05;;;;;;;;;;5099195;28;20276;-77
2021/12/21 12:52:56;;;;;;;23.00;9.02;;;;;;;;;;5093360;28;20024;-75
2021/12/21 12:55:23;;;;;;;21.55;7.68;;;;;;;;;;5073194;28;20497;-75
2021/12/21 12:57:52;;;;;;;22.40;8.60;;;;;;;;;;5090905;28;20060;-75
2021/12/21 13:00:23;;;;;;;20.30;8.32;;;;;;;;;;5076440;28;20027;-75
2021/12/21 13:03:06;;;;;;;21.58;8.45;;;;;;;;;;5094821;28;20067;-76
2021/12/21 13:05:38;;;;;;;22.08;7.95;;;;;;;;;;5090234;28;20433;-75
2021/12/21 13:08:09;;;;;;;25.30;9.13;;;;;;;;;;5098125;28;20017;-75
2021/12/21 13:10:40;;;;;;;21.70;8.65;;;;;;;;;;5099566;28;20026;-75
2021/12/21 13:13:06;;;;;;;23.73;8.63;;;;;;;;;;5121129;28;20058;-75
2021/12/21 13:15:43;;;;;;;21.15;8.93;;;;;;;;;;5106915;28;20027;-75
2021/12/21 13:18:17;;;;;;;19.90;8.02;;;;;;;;;;5122491;28;20065;-74
2021/12/21 13:20:47;;;;;;;26.55;10.00;;;;;;;;;;5121995;28;20092;-75
2021/12/21 13:23:15;;;;;;;18.08;7.13;;;;;;;;;;5121065;28;20047;-75
2021/12/21 13:25:54;;;;;;;22.55;8.32;;;;;;;;;;5117012;28;20027;-74
2021/12/21 13:28:19;;;;;;;29.73;9.07;;;;;;;;;;5112152;28;20039;-75
2021/12/21 13:30:47;;;;;;;19.85;8.10;;;;;;;;;;5104967;28;20024;-75
2021/12/21 13:33:32;;;;;;;23.05;8.48;;;;;;;;;;5101937;28;20362;-76
2021/12/21 13:36:03;;;;;;;19.77;8.82;;;;;;;;;;5093514;28;20053;-75
2021/12/21 13:38:29;;;;;;;21.42;8.70;;;;;;;;;;5101608;28;20051;-75
2021/12/21 13:41:15;;;;;;;21.13;9.05;;;;;;;;;;5101007;28;20040;-74
2021/12/21 13:43:59;;;;;;;21.83;8.40;;;;;;;;;;5096630;28;20087;-75
2021/12/21 13:46:31;;;;;;;25.85;8.13;;;;;;;;;;5090495;28;20039;-75
2021/12/21 13:48:58;;;;;;;24.23;8.57;;;;;;;;;;5092552;28;20020;-76
2021/12/21 13:51:25;;;;;;;22.17;8.90;;;;;;;;;;5072606;28;20055;-75
2021/12/21 13:53:54;;;;;;;27.05;9.63;;;;;;;;;;5097530;28;20028;-76
2021/12/21 13:56:22;;;;;;;22.42;8.60;;;;;;;;;;5097887;28;20024;-75
2021/12/21 13:58:54;;;;;;;23.80;8.70;;;;;;;;;;5099141;28;20020;-76
2021/12/21 14:01:22;;;;;;;22.15;8.40;;;;;;;;;;5099819;28;20027;-75
2021/12/21 14:03:54;;;;;;;18.98;8.05;;;;;;;;;;5105368;28;20019;-76
2021/12/21 14:06:22;;;;;;;22.15;7.93;;;;;;;;;;5099504;28;20030;-79
2021/12/21 14:08:53;;;;;;;23.00;8.45;;;;;;;;;;5098787;28;20484;-75
2021/12/21 14:11:20;;;;;;;21.05;7.68;;;;;;;;;;5093620;28;20462;-78
2021/12/21 14:13:49;;;;;;;19.40;8.60;;;;;;;;;;5097410;28;20183;-77
2021/12/21 14:16:18;;;;;;;23.33;8.48;;;;;;;;;;5092222;28;20036;-76
2021/12/21 14:18:52;;;;;;;21.00;8.02;;;;;;;;;;5099551;28;20059;-75
2021/12/21 14:21:31;;;;;;;20.02;8.07;;;;;;;;;;5082807;28;20040;-77
2021/12/21 14:24:02;;;;;;;24.17;8.30;;;;;;;;;;5070389;28;20044;-77
2021/12/21 14:26:45;;;;;;;21.80;8.13;;;;;;;;;;5070565;28;20016;-76
2021/12/21 14:29:12;;;;;;;22.52;7.38;;;;;;;;;;5076653;28;20043;-74
2021/12/21 14:31:43;;;;;;;18.95;7.70;;;;;;;;;;5070123;28;20433;-76
2021/12/21 14:34:10;;;;;;;22.77;8.75;;;;;;;;;;5097252;28;20322;-77
2021/12/21 14:36:38;;;;;;;23.08;8.60;;;;;;;;;;5094946;28;20064;-76
2021/12/21 14:39:12;;;;;;;22.33;7.55;;;;;;;;;;5098706;28;20012;-76
2021/12/21 14:41:40;;;;;;;22.25;9.10;;;;;;;;;;5095459;28;20016;-76
2021/12/21 14:44:12;;;;;;;21.73;8.15;;;;;;;;;;5099196;28;20036;-77
2021/12/21 14:46:51;;;;;;;21.65;8.32;;;;;;;;;;5097030;28;20023;-76
2021/12/21 14:49:24;;;;;;;18.48;8.35;;;;;;;;;;5093729;28;20036;-73
2021/12/21 14:51:51;;;;;;;21.27;8.93;;;;;;;;;;5082592;28;20029;-75
2021/12/21 14:54:28;;;;;;;19.05;8.25;;;;;;;;;;5093652;28;20354;-74
2021/12/21 14:57:06;;;;;;;21.50;8.63;;;;;;;;;;5095879;28;20085;-74
2021/12/21 14:59:37;;;;;;;20.95;8.52;;;;;;;;;;5093187;28;20032;-74
2021/12/21 15:02:22;;;;;;;18.33;7.65;;;;;;;;;;5098898;28;20024;-75
2021/12/21 15:04:55;;;;;;;20.20;8.38;;;;;;;;;;5092479;28;20031;-74
2021/12/21 15:07:21;;;;;;;19.15;8.43;;;;;;;;;;5095339;28;20028;-75
2021/12/21 15:09:46;;;;;;;21.17;9.02;;;;;;;;;;5112117;28;20088;-75
2021/12/21 15:12:11;;;;;;;22.52;9.02;;;;;;;;;;5116489;28;20103;-74
2021/12/21 15:14:37;;;;;;;19.35;8.02;;;;;;;;;;5099976;28;20399;-75
2021/12/21 15:17:02;;;;;;;18.92;8.68;;;;;;;;;;5077431;28;20490;-74
2021/12/21 15:19:28;;;;;;;22.23;8.55;;;;;;;;;;5081779;28;20059;-74
2021/12/21 15:21:53;;;;;;;20.08;8.32;;;;;;;;;;5088929;28;20028;-75
2021/12/21 15:24:18;;;;;;;22.38;9.23;;;;;;;;;;5096772;28;20020;-75
2021/12/21 15:26:44;;;;;;;24.23;9.10;;;;;;;;;;5086500;28;20027;-75
2021/12/21 15:29:09;;;;;;;22.58;9.32;;;;;;;;;;5107417;28;20036;-75
2021/12/21 15:31:35;;;;;;;17.45;7.95;;;;;;;;;;5103933;28;20358;-75
2021/12/21 15:34:02;;;;;;;20.67;8.93;;;;;;;;;;5084558;28;20052;-75
2021/12/21 15:36:27;;;;;;;21.60;8.57;;;;;;;;;;5083026;28;20036;-75
2021/12/21 15:38:54;;;;;;;22.05;9.32;;;;;;;;;;5083633;28;20312;-74
2021/12/21 15:41:20;;;;;;;21.33;9.07;;;;;;;;;;5114287;28;20073;-74
2021/12/21 15:43:45;;;;;;;24.30;9.80;;;;;;;;;;5123886;28;20302;-74